Cairnryan, United Kingdom
Current Conditions -  °F | °C
As of 10:20 AM on Thursday 29 Jan 2015 (Local Time) from EGEC Reporting Station
Snow Showers Snow Showers  
Wind Chill: 27°   Ceiling: 4800
Heat Index: 37°   Visibility: 6mi
Dew Point: 32°   Wind: 22mph
Humidity: 81%   Direction: 290°WNW
Pressure: 28.82"   Gusts: NA
Location:  54.97°N, 5.03°W
Report Text: EGEC 291020Z 29019KT 9999 SHRASN SCT015 BKN048 03/00 Q0976
Loading
Personal Weather Stations






























Interactive Weather Map New forecast layout! Learn more

10-Day Weather Forecast

Advertisements
Track Severe Weather on mobile